sensor_id;sensor_type;location;lat;lon;timestamp;pressure;altitude;pressure_sealevel;temperature;humidity
29359;BME280;16347;53.232;6.556;2022-08-19T00:01:29;101360.09;;;22.60;54.76
29359;BME280;16347;53.232;6.556;2022-08-19T00:03:58;101369.03;;;22.62;54.89
29359;BME280;16347;53.232;6.556;2022-08-19T00:06:28;101370.28;;;22.66;54.85
29359;BME280;16347;53.232;6.556;2022-08-19T00:08:57;101363.69;;;22.60;54.76
29359;BME280;16347;53.232;6.556;2022-08-19T00:11:28;101370.78;;;22.56;55.04
29359;BME280;16347;53.232;6.556;2022-08-19T00:13:56;101366.72;;;22.59;54.59
29359;BME280;16347;53.232;6.556;2022-08-19T00:16:26;101363.75;;;22.54;54.84
29359;BME280;16347;53.232;6.556;2022-08-19T00:18:54;101361.63;;;22.56;54.84
29359;BME280;16347;53.232;6.556;2022-08-19T00:21:24;101365.06;;;22.51;55.52
29359;BME280;16347;53.232;6.556;2022-08-19T00:23:53;101373.16;;;22.53;55.01
29359;BME280;16347;53.232;6.556;2022-08-19T00:26:21;101368.22;;;22.55;55.20
29359;BME280;16347;53.232;6.556;2022-08-19T00:28:51;101369.75;;;22.50;55.26
29359;BME280;16347;53.232;6.556;2022-08-19T00:31:19;101366.13;;;22.50;55.04
29359;BME280;16347;53.232;6.556;2022-08-19T00:33:47;101366.97;;;22.50;55.37
29359;BME280;16347;53.232;6.556;2022-08-19T00:36:17;101364.19;;;22.50;55.29
29359;BME280;16347;53.232;6.556;2022-08-19T00:38:46;101362.94;;;22.46;55.44
29359;BME280;16347;53.232;6.556;2022-08-19T00:41:15;101359.34;;;22.46;55.59
29359;BME280;16347;53.232;6.556;2022-08-19T00:43:58;101355.47;;;22.47;55.46
29359;BME280;16347;53.232;6.556;2022-08-19T00:46:27;101350.22;;;22.39;55.64
29359;BME280;16347;53.232;6.556;2022-08-19T00:48:56;101353.22;;;22.37;55.95
29359;BME280;16347;53.232;6.556;2022-08-19T00:51:24;101341.91;;;22.39;55.62
29359;BME280;16347;53.232;6.556;2022-08-19T00:53:54;101347.47;;;22.39;56.03
29359;BME280;16347;53.232;6.556;2022-08-19T00:56:23;101343.44;;;22.35;56.18
29359;BME280;16347;53.232;6.556;2022-08-19T00:58:54;101343.78;;;22.45;56.79
29359;BME280;16347;53.232;6.556;2022-08-19T01:01:25;101341.38;;;22.55;56.04
29359;BME280;16347;53.232;6.556;2022-08-19T01:03:54;101337.91;;;22.66;56.15
29359;BME280;16347;53.232;6.556;2022-08-19T01:06:24;101338.00;;;22.78;55.49
29359;BME280;16347;53.232;6.556;2022-08-19T01:08:53;101336.22;;;22.83;55.25
29359;BME280;16347;53.232;6.556;2022-08-19T01:11:22;101328.03;;;22.95;54.84
29359;BME280;16347;53.232;6.556;2022-08-19T01:13:51;101332.84;;;23.06;54.89
29359;BME280;16347;53.232;6.556;2022-08-19T01:16:22;101330.59;;;23.15;54.03
29359;BME280;16347;53.232;6.556;2022-08-19T01:18:53;101330.78;;;23.20;53.28
29359;BME280;16347;53.232;6.556;2022-08-19T01:21:29;101335.78;;;23.29;53.69
29359;BME280;16347;53.232;6.556;2022-08-19T01:24:02;101324.34;;;23.37;53.59
29359;BME280;16347;53.232;6.556;2022-08-19T01:26:30;101319.63;;;23.44;53.98
29359;BME280;16347;53.232;6.556;2022-08-19T01:28:59;101330.88;;;23.49;53.99
29359;BME280;16347;53.232;6.556;2022-08-19T01:31:28;101325.47;;;23.55;53.33
29359;BME280;16347;53.232;6.556;2022-08-19T01:34:00;101334.81;;;23.60;53.23
29359;BME280;16347;53.232;6.556;2022-08-19T01:36:33;101330.72;;;23.63;52.91
29359;BME280;16347;53.232;6.556;2022-08-19T01:39:07;101322.59;;;23.61;52.27
29359;BME280;16347;53.232;6.556;2022-08-19T01:41:39;101326.56;;;23.54;52.65
29359;BME280;16347;53.232;6.556;2022-08-19T01:44:09;101325.09;;;23.51;52.56
29359;BME280;16347;53.232;6.556;2022-08-19T01:46:47;101325.94;;;23.52;52.94
29359;BME280;16347;53.232;6.556;2022-08-19T01:49:17;101325.47;;;23.55;52.61
29359;BME280;16347;53.232;6.556;2022-08-19T01:51:47;101327.41;;;23.54;52.83
29359;BME280;16347;53.232;6.556;2022-08-19T01:54:19;101318.00;;;23.55;53.58
29359;BME280;16347;53.232;6.556;2022-08-19T01:56:58;101320.31;;;23.58;53.12
29359;BME280;16347;53.232;6.556;2022-08-19T01:59:29;101328.50;;;23.53;52.55
29359;BME280;16347;53.232;6.556;2022-08-19T02:02:00;101320.16;;;23.53;52.48
29359;BME280;16347;53.232;6.556;2022-08-19T02:04:30;101322.94;;;23.53;52.78
29359;BME280;16347;53.232;6.556;2022-08-19T02:07:00;101325.25;;;23.56;52.88
29359;BME280;16347;53.232;6.556;2022-08-19T02:09:32;101329.56;;;23.52;52.07
29359;BME280;16347;53.232;6.556;2022-08-19T02:12:00;101334.59;;;23.43;52.21
29359;BME280;16347;53.232;6.556;2022-08-19T02:14:28;101331.22;;;23.35;52.75
29359;BME280;16347;53.232;6.556;2022-08-19T02:16:56;101332.28;;;23.34;53.09
29359;BME280;16347;53.232;6.556;2022-08-19T02:19:24;101332.53;;;23.32;52.91
29359;BME280;16347;53.232;6.556;2022-08-19T02:21:52;101336.16;;;23.33;53.34
29359;BME280;16347;53.232;6.556;2022-08-19T02:24:20;101338.56;;;23.29;52.47
29359;BME280;16347;53.232;6.556;2022-08-19T02:26:49;101336.38;;;23.31;53.35
29359;BME280;16347;53.232;6.556;2022-08-19T02:29:17;101326.75;;;23.34;53.06
29359;BME280;16347;53.232;6.556;2022-08-19T02:31:45;101327.97;;;23.38;53.45
29359;BME280;16347;53.232;6.556;2022-08-19T02:34:14;101330.31;;;23.41;53.04
29359;BME280;16347;53.232;6.556;2022-08-19T02:36:42;101327.56;;;23.41;53.09
29359;BME280;16347;53.232;6.556;2022-08-19T02:39:17;101331.56;;;23.45;52.53
29359;BME280;16347;53.232;6.556;2022-08-19T02:41:44;101339.91;;;23.45;52.51
29359;BME280;16347;53.232;6.556;2022-08-19T02:44:14;101341.59;;;23.46;52.79
29359;BME280;16347;53.232;6.556;2022-08-19T02:46:57;101344.88;;;23.36;52.76
29359;BME280;16347;53.232;6.556;2022-08-19T02:49:25;101343.31;;;23.22;52.08
29359;BME280;16347;53.232;6.556;2022-08-19T02:51:53;101344.25;;;23.16;52.79
29359;BME280;16347;53.232;6.556;2022-08-19T02:54:21;101338.00;;;23.03;52.39
29359;BME280;16347;53.232;6.556;2022-08-19T02:56:50;101338.72;;;22.91;53.43
29359;BME280;16347;53.232;6.556;2022-08-19T02:59:19;101333.03;;;22.86;54.47
29359;BME280;16347;53.232;6.556;2022-08-19T03:01:49;101326.00;;;22.84;53.38
29359;BME280;16347;53.232;6.556;2022-08-19T03:04:17;101331.59;;;22.77;53.14
29359;BME280;16347;53.232;6.556;2022-08-19T03:06:47;101329.91;;;22.76;54.13
29359;BME280;16347;53.232;6.556;2022-08-19T03:09:16;101341.22;;;22.75;53.99
29359;BME280;16347;53.232;6.556;2022-08-19T03:11:44;101336.81;;;22.61;53.55
29359;BME280;16347;53.232;6.556;2022-08-19T03:14:15;101333.03;;;22.55;54.61
29359;BME280;16347;53.232;6.556;2022-08-19T03:16:51;101333.31;;;22.47;54.01
29359;BME280;16347;53.232;6.556;2022-08-19T03:19:20;101325.09;;;22.34;54.73
29359;BME280;16347;53.232;6.556;2022-08-19T03:21:49;101321.47;;;22.33;55.44
29359;BME280;16347;53.232;6.556;2022-08-19T03:24:18;101324.44;;;22.38;56.01
29359;BME280;16347;53.232;6.556;2022-08-19T03:26:49;101324.16;;;22.46;55.62
29359;BME280;16347;53.232;6.556;2022-08-19T03:29:19;101318.53;;;22.53;55.56
29359;BME280;16347;53.232;6.556;2022-08-19T03:31:58;101316.56;;;22.60;55.76
29359;BME280;16347;53.232;6.556;2022-08-19T03:34:36;101320.69;;;22.82;54.73
29359;BME280;16347;53.232;6.556;2022-08-19T03:37:05;101317.00;;;22.88;54.71
29359;BME280;16347;53.232;6.556;2022-08-19T03:39:35;101312.44;;;22.76;54.95
29359;BME280;16347;53.232;6.556;2022-08-19T03:42:04;101321.28;;;22.66;54.19
29359;BME280;16347;53.232;6.556;2022-08-19T03:44:52;101316.88;;;22.52;54.61
29359;BME280;16347;53.232;6.556;2022-08-19T03:47:22;101317.09;;;22.50;55.27
29359;BME280;16347;53.232;6.556;2022-08-19T03:49:50;101328.34;;;22.56;55.45
29359;BME280;16347;53.232;6.556;2022-08-19T03:52:18;101340.06;;;22.58;54.97
29359;BME280;16347;53.232;6.556;2022-08-19T03:54:46;101331.94;;;22.63;55.07
29359;BME280;16347;53.232;6.556;2022-08-19T03:57:14;101340.22;;;22.69;55.55
29359;BME280;16347;53.232;6.556;2022-08-19T03:59:42;101327.97;;;22.77;55.11
29359;BME280;16347;53.232;6.556;2022-08-19T04:02:11;101332.44;;;22.78;54.34
29359;BME280;16347;53.232;6.556;2022-08-19T04:04:43;101323.22;;;22.84;54.83
29359;BME280;16347;53.232;6.556;2022-08-19T04:07:13;101322.75;;;22.87;54.17
29359;BME280;16347;53.232;6.556;2022-08-19T04:09:42;101320.44;;;22.84;54.32
29359;BME280;16347;53.232;6.556;2022-08-19T04:12:11;101324.91;;;22.85;54.54
29359;BME280;16347;53.232;6.556;2022-08-19T04:14:41;101319.16;;;22.86;54.62
29359;BME280;16347;53.232;6.556;2022-08-19T04:17:13;101311.22;;;22.90;54.48
29359;BME280;16347;53.232;6.556;2022-08-19T04:19:46;101309.94;;;22.92;54.41
29359;BME280;16347;53.232;6.556;2022-08-19T04:22:14;101305.63;;;22.96;54.77
29359;BME280;16347;53.232;6.556;2022-08-19T04:24:44;101308.53;;;23.02;54.38
29359;BME280;16347;53.232;6.556;2022-08-19T04:27:15;101314.31;;;23.00;53.96
29359;BME280;16347;53.232;6.556;2022-08-19T04:29:45;101313.94;;;22.96;54.15
29359;BME280;16347;53.232;6.556;2022-08-19T04:32:14;101317.53;;;22.97;53.95
29359;BME280;16347;53.232;6.556;2022-08-19T04:34:45;101323.72;;;22.99;53.85
29359;BME280;16347;53.232;6.556;2022-08-19T04:37:38;101315.16;;;23.00;54.18
29359;BME280;16347;53.232;6.556;2022-08-19T04:40:08;101320.31;;;22.97;53.90
29359;BME280;16347;53.232;6.556;2022-08-19T04:42:54;101324.78;;;22.98;54.08
29359;BME280;16347;53.232;6.556;2022-08-19T04:45:23;101329.28;;;22.99;53.72
29359;BME280;16347;53.232;6.556;2022-08-19T04:47:55;101323.16;;;22.90;54.04
29359;BME280;16347;53.232;6.556;2022-08-19T04:50:47;101325.59;;;22.80;53.54
29359;BME280;16347;53.232;6.556;2022-08-19T04:53:15;101321.16;;;22.79;54.56
29359;BME280;16347;53.232;6.556;2022-08-19T04:55:45;101313.50;;;22.75;54.15
29359;BME280;16347;53.232;6.556;2022-08-19T04:58:14;101319.50;;;22.72;54.86
29359;BME280;16347;53.232;6.556;2022-08-19T05:00:44;101310.53;;;22.70;54.60
29359;BME280;16347;53.232;6.556;2022-08-19T05:03:12;101315.72;;;22.66;54.60
29359;BME280;16347;53.232;6.556;2022-08-19T05:05:47;101308.72;;;22.57;54.78
29359;BME280;16347;53.232;6.556;2022-08-19T05:08:18;101301.56;;;22.43;54.95
29359;BME280;16347;53.232;6.556;2022-08-19T05:10:57;101313.22;;;22.27;55.78
29359;BME280;16347;53.232;6.556;2022-08-19T05:13:26;101318.53;;;21.97;56.53
29359;BME280;16347;53.232;6.556;2022-08-19T05:15:56;101315.59;;;21.92;56.68
29359;BME280;16347;53.232;6.556;2022-08-19T05:18:28;101315.84;;;21.77;57.15
29359;BME280;16347;53.232;6.556;2022-08-19T05:21:18;101312.50;;;21.62;58.30
29359;BME280;16347;53.232;6.556;2022-08-19T05:24:06;101321.38;;;21.07;60.67
29359;BME280;16347;53.232;6.556;2022-08-19T05:26:39;101326.94;;;20.74;61.95
29359;BME280;16347;53.232;6.556;2022-08-19T05:29:10;101325.25;;;20.73;61.94
29359;BME280;16347;53.232;6.556;2022-08-19T05:31:39;101331.00;;;20.65;62.43
29359;BME280;16347;53.232;6.556;2022-08-19T05:34:10;101327.16;;;20.66;62.44
29359;BME280;16347;53.232;6.556;2022-08-19T05:36:51;101322.72;;;20.58;63.01
29359;BME280;16347;53.232;6.556;2022-08-19T05:39:31;101321.84;;;20.77;63.08
29359;BME280;16347;53.232;6.556;2022-08-19T05:42:09;101311.63;;;20.84;62.46
29359;BME280;16347;53.232;6.556;2022-08-19T05:44:43;101296.94;;;20.90;62.67
29359;BME280;16347;53.232;6.556;2022-08-19T05:47:15;101300.75;;;20.96;62.48
29359;BME280;16347;53.232;6.556;2022-08-19T05:49:48;101300.59;;;20.78;62.30
29359;BME280;16347;53.232;6.556;2022-08-19T05:52:22;101306.72;;;20.93;62.84
29359;BME280;16347;53.232;6.556;2022-08-19T05:54:54;101304.59;;;21.08;62.65
29359;BME280;16347;53.232;6.556;2022-08-19T05:57:25;101299.88;;;21.09;61.91
29359;BME280;16347;53.232;6.556;2022-08-19T05:59:57;101303.31;;;21.17;62.14
29359;BME280;16347;53.232;6.556;2022-08-19T06:02:38;101304.38;;;21.16;61.95
29359;BME280;16347;53.232;6.556;2022-08-19T06:05:07;101318.41;;;21.15;62.87
29359;BME280;16347;53.232;6.556;2022-08-19T06:07:39;101308.19;;;21.02;63.52
29359;BME280;16347;53.232;6.556;2022-08-19T06:10:10;101305.22;;;21.10;63.50
29359;BME280;16347;53.232;6.556;2022-08-19T06:12:38;101296.91;;;21.04;63.10
29359;BME280;16347;53.232;6.556;2022-08-19T06:15:09;101301.59;;;21.03;63.33
29359;BME280;16347;53.232;6.556;2022-08-19T06:17:38;101293.97;;;21.05;63.21
29359;BME280;16347;53.232;6.556;2022-08-19T06:20:08;101293.81;;;20.61;64.53
29359;BME280;16347;53.232;6.556;2022-08-19T06:22:44;101295.50;;;20.48;65.24
29359;BME280;16347;53.232;6.556;2022-08-19T06:25:15;101299.34;;;20.61;65.04
29359;BME280;16347;53.232;6.556;2022-08-19T06:27:45;101292.94;;;20.54;65.68
29359;BME280;16347;53.232;6.556;2022-08-19T06:30:36;101296.97;;;20.71;64.75
29359;BME280;16347;53.232;6.556;2022-08-19T06:33:06;101293.16;;;20.85;64.81
29359;BME280;16347;53.232;6.556;2022-08-19T06:35:39;101294.19;;;20.97;64.09
29359;BME280;16347;53.232;6.556;2022-08-19T06:38:12;101294.38;;;20.95;64.26
29359;BME280;16347;53.232;6.556;2022-08-19T06:40:40;101292.47;;;20.96;64.95
29359;BME280;16347;53.232;6.556;2022-08-19T06:43:09;101291.44;;;20.90;64.77
29359;BME280;16347;53.232;6.556;2022-08-19T06:45:40;101293.53;;;20.88;65.71
29359;BME280;16347;53.232;6.556;2022-08-19T06:48:11;101285.88;;;20.97;65.39
29359;BME280;16347;53.232;6.556;2022-08-19T06:50:44;101288.63;;;21.17;65.67
29359;BME280;16347;53.232;6.556;2022-08-19T06:53:18;101295.84;;;21.24;65.09
29359;BME280;16347;53.232;6.556;2022-08-19T06:55:50;101289.88;;;21.27;64.71
29359;BME280;16347;53.232;6.556;2022-08-19T06:58:29;101297.72;;;21.37;65.08
29359;BME280;16347;53.232;6.556;2022-08-19T07:01:02;101296.91;;;21.17;65.28
29359;BME280;16347;53.232;6.556;2022-08-19T07:03:37;101306.72;;;20.93;66.29
29359;BME280;16347;53.232;6.556;2022-08-19T07:06:10;101305.84;;;20.99;66.94
29359;BME280;16347;53.232;6.556;2022-08-19T07:11:34;101303.53;;;20.96;67.74
29359;BME280;16347;53.232;6.556;2022-08-19T07:14:05;101302.25;;;21.18;67.31
29359;BME280;16347;53.232;6.556;2022-08-19T07:16:46;101305.44;;;21.15;67.00
29359;BME280;16347;53.232;6.556;2022-08-19T07:19:18;101304.56;;;21.21;67.25
29359;BME280;16347;53.232;6.556;2022-08-19T07:21:50;101304.31;;;21.29;67.71
29359;BME280;16347;53.232;6.556;2022-08-19T07:24:25;101301.09;;;21.39;67.19
29359;BME280;16347;53.232;6.556;2022-08-19T07:27:03;101305.34;;;21.41;67.51
29359;BME280;16347;53.232;6.556;2022-08-19T07:29:41;101301.44;;;21.56;66.84
29359;BME280;16347;53.232;6.556;2022-08-19T07:32:23;101300.56;;;21.68;67.01
29359;BME280;16347;53.232;6.556;2022-08-19T07:34:56;101308.09;;;21.86;66.59
29359;BME280;16347;53.232;6.556;2022-08-19T07:37:30;101301.09;;;21.90;65.85
29359;BME280;16347;53.232;6.556;2022-08-19T07:40:04;101310.31;;;21.77;65.58
29359;BME280;16347;53.232;6.556;2022-08-19T07:42:33;101308.38;;;21.78;65.70
29359;BME280;16347;53.232;6.556;2022-08-19T07:45:03;101300.03;;;21.84;66.53
29359;BME280;16347;53.232;6.556;2022-08-19T07:47:34;101295.97;;;21.87;66.07
29359;BME280;16347;53.232;6.556;2022-08-19T07:50:26;101305.97;;;21.88;65.33
29359;BME280;16347;53.232;6.556;2022-08-19T07:52:56;101305.28;;;22.06;65.33
29359;BME280;16347;53.232;6.556;2022-08-19T07:55:29;101294.56;;;22.16;64.98
29359;BME280;16347;53.232;6.556;2022-08-19T07:58:13;101307.66;;;22.27;64.38
29359;BME280;16347;53.232;6.556;2022-08-19T08:00:48;101302.38;;;22.25;64.33
29359;BME280;16347;53.232;6.556;2022-08-19T08:03:22;101301.28;;;22.26;64.59
29359;BME280;16347;53.232;6.556;2022-08-19T08:06:16;101308.38;;;22.47;63.91
29359;BME280;16347;53.232;6.556;2022-08-19T08:09:05;101313.66;;;22.55;63.17
29359;BME280;16347;53.232;6.556;2022-08-19T08:11:49;101311.84;;;22.67;62.65
29359;BME280;16347;53.232;6.556;2022-08-19T08:14:26;101319.03;;;22.75;62.61
29359;BME280;16347;53.232;6.556;2022-08-19T08:17:04;101314.56;;;22.74;61.94
29359;BME280;16347;53.232;6.556;2022-08-19T08:19:41;101321.59;;;22.76;62.37
29359;BME280;16347;53.232;6.556;2022-08-19T08:22:20;101329.16;;;22.87;61.27
29359;BME280;16347;53.232;6.556;2022-08-19T08:25:13;101327.25;;;22.88;61.43
29359;BME280;16347;53.232;6.556;2022-08-19T08:27:47;101333.34;;;22.96;60.30
29359;BME280;16347;53.232;6.556;2022-08-19T08:30:24;101333.63;;;22.88;58.85
29359;BME280;16347;53.232;6.556;2022-08-19T08:33:03;101330.06;;;23.06;59.02
29359;BME280;16347;53.232;6.556;2022-08-19T08:35:35;101327.00;;;23.32;58.68
29359;BME280;16347;53.232;6.556;2022-08-19T08:38:07;101328.88;;;23.14;58.38
29359;BME280;16347;53.232;6.556;2022-08-19T08:40:44;101329.59;;;23.27;58.77
29359;BME280;16347;53.232;6.556;2022-08-19T08:43:23;101333.22;;;23.28;58.37
29359;BME280;16347;53.232;6.556;2022-08-19T08:46:02;101344.72;;;23.31;59.18
29359;BME280;16347;53.232;6.556;2022-08-19T08:48:38;101334.69;;;23.30;59.56
29359;BME280;16347;53.232;6.556;2022-08-19T08:51:15;101348.72;;;23.35;59.67
29359;BME280;16347;53.232;6.556;2022-08-19T08:53:50;101349.28;;;23.44;58.73
29359;BME280;16347;53.232;6.556;2022-08-19T08:56:23;101341.34;;;23.47;58.19
29359;BME280;16347;53.232;6.556;2022-08-19T08:59:03;101345.53;;;23.57;58.54
29359;BME280;16347;53.232;6.556;2022-08-19T09:01:36;101345.53;;;23.57;58.50
29359;BME280;16347;53.232;6.556;2022-08-19T09:04:07;101342.28;;;23.60;58.65
29359;BME280;16347;53.232;6.556;2022-08-19T09:06:44;101339.66;;;23.65;58.63
29359;BME280;16347;53.232;6.556;2022-08-19T09:09:24;101342.03;;;23.79;58.46
29359;BME280;16347;53.232;6.556;2022-08-19T09:12:05;101335.41;;;23.80;57.49
29359;BME280;16347;53.232;6.556;2022-08-19T09:14:45;101334.75;;;23.96;57.52
29359;BME280;16347;53.232;6.556;2022-08-19T09:17:18;101341.47;;;23.89;56.99
29359;BME280;16347;53.232;6.556;2022-08-19T09:19:53;101339.00;;;23.99;56.94
29359;BME280;16347;53.232;6.556;2022-08-19T09:22:22;101338.91;;;24.06;56.54
29359;BME280;16347;53.232;6.556;2022-08-19T09:24:52;101343.38;;;24.07;56.08
29359;BME280;16347;53.232;6.556;2022-08-19T09:27:21;101341.66;;;24.06;55.56
29359;BME280;16347;53.232;6.556;2022-08-19T09:30:16;101334.41;;;24.23;56.10
29359;BME280;16347;53.232;6.556;2022-08-19T09:32:46;101336.59;;;24.21;56.33
29359;BME280;16347;53.232;6.556;2022-08-19T09:35:19;101331.63;;;24.23;56.08
29359;BME280;16347;53.232;6.556;2022-08-19T09:37:50;101329.69;;;24.23;56.40
29359;BME280;16347;53.232;6.556;2022-08-19T09:40:26;101341.28;;;24.20;55.57
29359;BME280;16347;53.232;6.556;2022-08-19T09:42:56;101344.06;;;24.20;54.90
29359;BME280;16347;53.232;6.556;2022-08-19T09:45:37;101339.00;;;24.29;55.26
29359;BME280;16347;53.232;6.556;2022-08-19T09:48:05;101337.19;;;24.34;54.82
29359;BME280;16347;53.232;6.556;2022-08-19T09:50:35;101331.91;;;24.44;54.93
29359;BME280;16347;53.232;6.556;2022-08-19T09:53:18;101329.06;;;24.63;54.34
29359;BME280;16347;53.232;6.556;2022-08-19T09:55:51;101336.44;;;24.69;54.54
29359;BME280;16347;53.232;6.556;2022-08-19T09:58:19;101338.09;;;24.46;54.24
29359;BME280;16347;53.232;6.556;2022-08-19T10:00:53;101336.81;;;24.61;54.50
29359;BME280;16347;53.232;6.556;2022-08-19T10:03:22;101335.81;;;24.43;53.51
29359;BME280;16347;53.232;6.556;2022-08-19T10:05:57;101325.66;;;24.49;53.53
29359;BME280;16347;53.232;6.556;2022-08-19T10:08:29;101331.97;;;24.68;53.83
29359;BME280;16347;53.232;6.556;2022-08-19T10:10:59;101331.25;;;24.61;53.46
29359;BME280;16347;53.232;6.556;2022-08-19T10:13:48;101327.59;;;24.60;53.76
29359;BME280;16347;53.232;6.556;2022-08-19T10:16:23;101331.34;;;24.66;52.84
29359;BME280;16347;53.232;6.556;2022-08-19T10:18:56;101332.06;;;24.61;52.95
29359;BME280;16347;53.232;6.556;2022-08-19T10:21:33;101321.25;;;24.83;53.00
29359;BME280;16347;53.232;6.556;2022-08-19T10:24:11;101326.84;;;24.94;53.34
29359;BME280;16347;53.232;6.556;2022-08-19T10:26:47;101329.00;;;24.92;52.07
29359;BME280;16347;53.232;6.556;2022-08-19T10:29:24;101329.34;;;24.96;52.73
29359;BME280;16347;53.232;6.556;2022-08-19T10:32:02;101329.00;;;24.92;52.55
29359;BME280;16347;53.232;6.556;2022-08-19T10:34:37;101325.38;;;25.04;52.72
29359;BME280;16347;53.232;6.556;2022-08-19T10:37:17;101328.13;;;25.15;53.04
29359;BME280;16347;53.232;6.556;2022-08-19T10:39:56;101329.72;;;25.11;53.30
29359;BME280;16347;53.232;6.556;2022-08-19T10:42:27;101326.81;;;25.18;52.42
29359;BME280;16347;53.232;6.556;2022-08-19T10:44:58;101325.34;;;25.15;52.42
29359;BME280;16347;53.232;6.556;2022-08-19T10:47:33;101316.66;;;25.35;51.98
29359;BME280;16347;53.232;6.556;2022-08-19T10:50:04;101313.88;;;25.23;52.48
29359;BME280;16347;53.232;6.556;2022-08-19T10:52:55;101317.13;;;25.20;53.09
29359;BME280;16347;53.232;6.556;2022-08-19T10:55:26;101313.88;;;25.23;53.41
29359;BME280;16347;53.232;6.556;2022-08-19T10:58:14;101310.94;;;25.30;52.29
29359;BME280;16347;53.232;6.556;2022-08-19T11:00:52;101312.38;;;25.32;51.89
29359;BME280;16347;53.232;6.556;2022-08-19T11:03:26;101312.59;;;25.42;52.04
29359;BME280;16347;53.232;6.556;2022-08-19T11:06:18;101313.13;;;25.51;51.69
29359;BME280;16347;53.232;6.556;2022-08-19T11:08:48;101311.28;;;25.57;53.31
29359;BME280;16347;53.232;6.556;2022-08-19T11:11:17;101312.13;;;25.57;53.68
29359;BME280;16347;53.232;6.556;2022-08-19T11:13:47;101309.31;;;25.69;52.36
29359;BME280;16347;53.232;6.556;2022-08-19T11:16:18;101306.88;;;25.72;52.59
29359;BME280;16347;53.232;6.556;2022-08-19T11:18:54;101303.56;;;25.87;52.32
29359;BME280;16347;53.232;6.556;2022-08-19T11:21:29;101306.34;;;25.87;49.94
29359;BME280;16347;53.232;6.556;2022-08-19T11:24:02;101302.69;;;25.86;50.21
29359;BME280;16347;53.232;6.556;2022-08-19T11:26:33;101301.09;;;26.02;50.77
29359;BME280;16347;53.232;6.556;2022-08-19T11:29:05;101304.06;;;26.12;50.52
29359;BME280;16347;53.232;6.556;2022-08-19T11:31:39;101304.88;;;26.13;50.79
29359;BME280;16347;53.232;6.556;2022-08-19T11:34:13;101305.31;;;26.05;50.46
29359;BME280;16347;53.232;6.556;2022-08-19T11:36:47;101294.38;;;26.03;50.39
29359;BME280;16347;53.232;6.556;2022-08-19T11:39:19;101302.16;;;26.01;51.65
29359;BME280;16347;53.232;6.556;2022-08-19T11:41:49;101294.88;;;26.00;50.61
29359;BME280;16347;53.232;6.556;2022-08-19T11:44:20;101297.03;;;26.10;50.45
29359;BME280;16347;53.232;6.556;2022-08-19T11:46:50;101296.09;;;26.04;49.74
29359;BME280;16347;53.232;6.556;2022-08-19T11:49:22;101301.19;;;25.95;50.87
29359;BME280;16347;53.232;6.556;2022-08-19T11:51:56;101303.41;;;25.93;50.83
29359;BME280;16347;53.232;6.556;2022-08-19T11:54:26;101299.84;;;25.81;49.66
29359;BME280;16347;53.232;6.556;2022-08-19T11:56:58;101300.88;;;25.92;50.24
29359;BME280;16347;53.232;6.556;2022-08-19T11:59:28;101297.84;;;25.93;50.23
29359;BME280;16347;53.232;6.556;2022-08-19T12:01:57;101306.94;;;25.89;50.24
29359;BME280;16347;53.232;6.556;2022-08-19T12:04:28;101313.00;;;25.86;51.07
29359;BME280;16347;53.232;6.556;2022-08-19T12:06:56;101299.53;;;25.94;51.50
29359;BME280;16347;53.232;6.556;2022-08-19T12:09:25;101292.38;;;25.98;51.07
29359;BME280;16347;53.232;6.556;2022-08-19T12:11:58;101296.44;;;25.79;48.74
29359;BME280;16347;53.232;6.556;2022-08-19T12:14:30;101293.63;;;25.91;49.42
29359;BME280;16347;53.232;6.556;2022-08-19T12:16:58;101300.13;;;25.96;49.98
29359;BME280;16347;53.232;6.556;2022-08-19T12:19:28;101297.94;;;25.98;48.69
29359;BME280;16347;53.232;6.556;2022-08-19T12:22:01;101297.19;;;26.03;49.29
29359;BME280;16347;53.232;6.556;2022-08-19T12:24:40;101293.22;;;26.16;50.46
29359;BME280;16347;53.232;6.556;2022-08-19T12:27:12;101291.28;;;26.16;49.65
29359;BME280;16347;53.232;6.556;2022-08-19T12:30:11;101292.41;;;26.15;50.57
29359;BME280;16347;53.232;6.556;2022-08-19T12:32:45;101297.13;;;26.15;49.00
29359;BME280;16347;53.232;6.556;2022-08-19T12:35:15;101300.06;;;26.08;48.89
29359;BME280;16347;53.232;6.556;2022-08-19T12:37:49;101303.22;;;26.12;49.56
29359;BME280;16347;53.232;6.556;2022-08-19T12:40:24;101288.13;;;25.96;49.88
29359;BME280;16347;53.232;6.556;2022-08-19T12:42:54;101297.44;;;26.01;49.73
29359;BME280;16347;53.232;6.556;2022-08-19T12:45:23;101295.75;;;26.00;48.63
29359;BME280;16347;53.232;6.556;2022-08-19T12:47:52;101290.81;;;26.19;48.99
29359;BME280;16347;53.232;6.556;2022-08-19T12:50:24;101292.34;;;26.27;48.28
29359;BME280;16347;53.232;6.556;2022-08-19T12:52:54;101297.00;;;26.21;48.89
29359;BME280;16347;53.232;6.556;2022-08-19T12:55:27;101305.56;;;26.31;46.46
29359;BME280;16347;53.232;6.556;2022-08-19T12:57:58;101295.94;;;26.11;47.68
29359;BME280;16347;53.232;6.556;2022-08-19T13:00:28;101290.59;;;26.09;47.96
29359;BME280;16347;53.232;6.556;2022-08-19T13:03:01;101286.66;;;26.05;48.63
29359;BME280;16347;53.232;6.556;2022-08-19T13:05:33;101283.19;;;26.15;48.96
29359;BME280;16347;53.232;6.556;2022-08-19T13:08:03;101284.56;;;26.12;49.34
29359;BME280;16347;53.232;6.556;2022-08-19T13:10:35;101294.59;;;26.13;49.81
29359;BME280;16347;53.232;6.556;2022-08-19T13:13:08;101287.22;;;26.07;50.59
29359;BME280;16347;53.232;6.556;2022-08-19T13:15:39;101292.38;;;25.98;51.59
29359;BME280;16347;53.232;6.556;2022-08-19T13:18:09;101301.13;;;25.90;52.64
29359;BME280;16347;53.232;6.556;2022-08-19T13:20:39;101305.00;;;25.89;52.93
29359;BME280;16347;53.232;6.556;2022-08-19T13:23:19;101306.19;;;25.93;53.36